sensor_id;sensor_type;location;lat;lon;timestamp;P1;durP1;ratioP1;P2;durP2;ratioP2
4186;SDS011;2107;52.306;10.484;2023-07-09T00:01:06;0.40;;;0.40;;
4186;SDS011;2107;52.306;10.484;2023-07-09T00:03:38;0.40;;;0.40;;
4186;SDS011;2107;52.306;10.484;2023-07-09T00:06:08;0.40;;;0.40;;
4186;SDS011;2107;52.306;10.484;2023-07-09T00:08:36;0.50;;;0.50;;
4186;SDS011;2107;52.306;10.484;2023-07-09T00:11:06;0.40;;;0.40;;
4186;SDS011;2107;52.306;10.484;2023-07-09T00:13:33;0.50;;;0.50;;
4186;SDS011;2107;52.306;10.484;2023-07-09T00:16:00;0.50;;;0.50;;
4186;SDS011;2107;52.306;10.484;2023-07-09T00:18:33;0.50;;;0.50;;
4186;SDS011;2107;52.306;10.484;2023-07-09T00:21:00;0.40;;;0.40;;
4186;SDS011;2107;52.306;10.484;2023-07-09T00:23:28;0.40;;;0.40;;
4186;SDS011;2107;52.306;10.484;2023-07-09T00:25:55;0.40;;;0.40;;
4186;SDS011;2107;52.306;10.484;2023-07-09T00:28:22;0.33;;;0.33;;
4186;SDS011;2107;52.306;10.484;2023-07-09T00:30:49;0.40;;;0.40;;
4186;SDS011;2107;52.306;10.484;2023-07-09T00:33:16;0.40;;;0.40;;
4186;SDS011;2107;52.306;10.484;2023-07-09T00:35:45;0.47;;;0.47;;
4186;SDS011;2107;52.306;10.484;2023-07-09T00:38:13;0.50;;;0.50;;
4186;SDS011;2107;52.306;10.484;2023-07-09T00:40:46;0.50;;;0.50;;
4186;SDS011;2107;52.306;10.484;2023-07-09T00:43:15;0.50;;;0.50;;
4186;SDS011;2107;52.306;10.484;2023-07-09T00:45:42;0.50;;;0.50;;
4186;SDS011;2107;52.306;10.484;2023-07-09T00:48:11;0.50;;;0.50;;
4186;SDS011;2107;52.306;10.484;2023-07-09T00:50:42;0.40;;;0.40;;
4186;SDS011;2107;52.306;10.484;2023-07-09T00:53:16;0.47;;;0.47;;
4186;SDS011;2107;52.306;10.484;2023-07-09T00:55:49;0.50;;;0.50;;
4186;SDS011;2107;52.306;10.484;2023-07-09T00:58:21;0.50;;;0.50;;
4186;SDS011;2107;52.306;10.484;2023-07-09T01:00:53;0.40;;;0.40;;
4186;SDS011;2107;52.306;10.484;2023-07-09T01:03:27;0.47;;;0.47;;
4186;SDS011;2107;52.306;10.484;2023-07-09T01:05:58;0.50;;;0.50;;
4186;SDS011;2107;52.306;10.484;2023-07-09T01:08:25;0.60;;;0.60;;
4186;SDS011;2107;52.306;10.484;2023-07-09T01:10:57;0.60;;;0.60;;
4186;SDS011;2107;52.306;10.484;2023-07-09T01:13:24;0.40;;;0.40;;
4186;SDS011;2107;52.306;10.484;2023-07-09T01:15:52;0.50;;;0.50;;
4186;SDS011;2107;52.306;10.484;2023-07-09T01:18:20;0.47;;;0.47;;
4186;SDS011;2107;52.306;10.484;2023-07-09T01:20:49;0.40;;;0.40;;
4186;SDS011;2107;52.306;10.484;2023-07-09T01:23:19;0.40;;;0.40;;
4186;SDS011;2107;52.306;10.484;2023-07-09T01:25:46;0.40;;;0.40;;
4186;SDS011;2107;52.306;10.484;2023-07-09T01:28:17;0.40;;;0.40;;
4186;SDS011;2107;52.306;10.484;2023-07-09T01:30:45;0.40;;;0.40;;
4186;SDS011;2107;52.306;10.484;2023-07-09T01:33:18;0.40;;;0.40;;
4186;SDS011;2107;52.306;10.484;2023-07-09T01:35:46;0.40;;;0.40;;
4186;SDS011;2107;52.306;10.484;2023-07-09T01:38:13;0.40;;;0.40;;
4186;SDS011;2107;52.306;10.484;2023-07-09T01:40:42;0.40;;;0.40;;
4186;SDS011;2107;52.306;10.484;2023-07-09T01:43:11;0.40;;;0.40;;
4186;SDS011;2107;52.306;10.484;2023-07-09T01:45:38;0.40;;;0.40;;
4186;SDS011;2107;52.306;10.484;2023-07-09T01:48:07;0.40;;;0.40;;
4186;SDS011;2107;52.306;10.484;2023-07-09T01:50:40;0.47;;;0.47;;
4186;SDS011;2107;52.306;10.484;2023-07-09T01:53:08;0.40;;;0.40;;
4186;SDS011;2107;52.306;10.484;2023-07-09T01:55:35;0.40;;;0.40;;
4186;SDS011;2107;52.306;10.484;2023-07-09T01:58:04;0.40;;;0.40;;
4186;SDS011;2107;52.306;10.484;2023-07-09T02:00:32;0.40;;;0.40;;
4186;SDS011;2107;52.306;10.484;2023-07-09T02:03:00;0.50;;;0.50;;
4186;SDS011;2107;52.306;10.484;2023-07-09T02:05:30;0.40;;;0.40;;
4186;SDS011;2107;52.306;10.484;2023-07-09T02:07:58;0.40;;;0.40;;
4186;SDS011;2107;52.306;10.484;2023-07-09T02:10:25;0.40;;;0.40;;
4186;SDS011;2107;52.306;10.484;2023-07-09T02:12:52;0.40;;;0.40;;
4186;SDS011;2107;52.306;10.484;2023-07-09T02:15:20;0.50;;;0.50;;
4186;SDS011;2107;52.306;10.484;2023-07-09T02:17:47;0.43;;;0.43;;
4186;SDS011;2107;52.306;10.484;2023-07-09T02:20:14;0.40;;;0.40;;
4186;SDS011;2107;52.306;10.484;2023-07-09T02:22:41;0.40;;;0.40;;
4186;SDS011;2107;52.306;10.484;2023-07-09T02:25:08;0.50;;;0.50;;
4186;SDS011;2107;52.306;10.484;2023-07-09T02:27:35;0.40;;;0.40;;
4186;SDS011;2107;52.306;10.484;2023-07-09T02:30:03;0.50;;;0.50;;
4186;SDS011;2107;52.306;10.484;2023-07-09T02:32:33;0.50;;;0.50;;
4186;SDS011;2107;52.306;10.484;2023-07-09T02:35:00;0.50;;;0.50;;
4186;SDS011;2107;52.306;10.484;2023-07-09T02:37:27;0.60;;;0.60;;
4186;SDS011;2107;52.306;10.484;2023-07-09T02:39:54;0.60;;;0.60;;
4186;SDS011;2107;52.306;10.484;2023-07-09T02:42:21;0.50;;;0.50;;
4186;SDS011;2107;52.306;10.484;2023-07-09T02:44:49;0.50;;;0.50;;
4186;SDS011;2107;52.306;10.484;2023-07-09T02:47:16;0.50;;;0.50;;
4186;SDS011;2107;52.306;10.484;2023-07-09T02:49:44;0.43;;;0.43;;
4186;SDS011;2107;52.306;10.484;2023-07-09T02:52:11;0.50;;;0.50;;
4186;SDS011;2107;52.306;10.484;2023-07-09T02:54:38;0.40;;;0.40;;
4186;SDS011;2107;52.306;10.484;2023-07-09T02:57:05;0.40;;;0.40;;
4186;SDS011;2107;52.306;10.484;2023-07-09T02:59:33;0.50;;;0.50;;
4186;SDS011;2107;52.306;10.484;2023-07-09T03:02:00;0.40;;;0.40;;
4186;SDS011;2107;52.306;10.484;2023-07-09T03:04:27;0.40;;;0.40;;
4186;SDS011;2107;52.306;10.484;2023-07-09T03:06:55;0.30;;;0.30;;
4186;SDS011;2107;52.306;10.484;2023-07-09T03:09:22;0.30;;;0.30;;
4186;SDS011;2107;52.306;10.484;2023-07-09T03:11:49;0.30;;;0.30;;
4186;SDS011;2107;52.306;10.484;2023-07-09T03:14:16;0.40;;;0.40;;
4186;SDS011;2107;52.306;10.484;2023-07-09T03:16:43;0.30;;;0.30;;
4186;SDS011;2107;52.306;10.484;2023-07-09T03:19:10;0.30;;;0.30;;
4186;SDS011;2107;52.306;10.484;2023-07-09T03:21:37;0.23;;;0.23;;
4186;SDS011;2107;52.306;10.484;2023-07-09T03:24:06;0.30;;;0.30;;
4186;SDS011;2107;52.306;10.484;2023-07-09T03:26:33;0.20;;;0.20;;
4186;SDS011;2107;52.306;10.484;2023-07-09T03:29:00;0.20;;;0.20;;
4186;SDS011;2107;52.306;10.484;2023-07-09T03:31:27;0.20;;;0.20;;
4186;SDS011;2107;52.306;10.484;2023-07-09T03:33:54;0.20;;;0.20;;
4186;SDS011;2107;52.306;10.484;2023-07-09T03:36:21;0.20;;;0.20;;
4186;SDS011;2107;52.306;10.484;2023-07-09T03:38:48;0.20;;;0.20;;
4186;SDS011;2107;52.306;10.484;2023-07-09T03:41:16;0.20;;;0.20;;
4186;SDS011;2107;52.306;10.484;2023-07-09T03:43:43;0.20;;;0.20;;
4186;SDS011;2107;52.306;10.484;2023-07-09T03:46:10;0.20;;;0.20;;
4186;SDS011;2107;52.306;10.484;2023-07-09T03:48:37;0.20;;;0.20;;
4186;SDS011;2107;52.306;10.484;2023-07-09T03:51:04;0.10;;;0.10;;
4186;SDS011;2107;52.306;10.484;2023-07-09T03:53:31;0.20;;;0.20;;
4186;SDS011;2107;52.306;10.484;2023-07-09T03:55:58;0.20;;;0.20;;
4186;SDS011;2107;52.306;10.484;2023-07-09T03:58:27;0.20;;;0.20;;
4186;SDS011;2107;52.306;10.484;2023-07-09T04:00:54;0.27;;;0.27;;
4186;SDS011;2107;52.306;10.484;2023-07-09T04:03:21;0.50;;;0.50;;
4186;SDS011;2107;52.306;10.484;2023-07-09T04:05:48;0.40;;;0.40;;
4186;SDS011;2107;52.306;10.484;2023-07-09T04:08:16;0.30;;;0.30;;
4186;SDS011;2107;52.306;10.484;2023-07-09T04:10:42;0.30;;;0.30;;
4186;SDS011;2107;52.306;10.484;2023-07-09T04:13:09;0.30;;;0.30;;
4186;SDS011;2107;52.306;10.484;2023-07-09T04:15:38;0.30;;;0.30;;
4186;SDS011;2107;52.306;10.484;2023-07-09T04:18:04;0.30;;;0.30;;
4186;SDS011;2107;52.306;10.484;2023-07-09T04:20:31;0.20;;;0.20;;
4186;SDS011;2107;52.306;10.484;2023-07-09T04:22:59;0.30;;;0.30;;
4186;SDS011;2107;52.306;10.484;2023-07-09T04:25:26;0.30;;;0.30;;
4186;SDS011;2107;52.306;10.484;2023-07-09T04:27:53;0.30;;;0.30;;
4186;SDS011;2107;52.306;10.484;2023-07-09T04:30:20;0.23;;;0.23;;
4186;SDS011;2107;52.306;10.484;2023-07-09T04:32:49;0.30;;;0.30;;
4186;SDS011;2107;52.306;10.484;2023-07-09T04:35:15;0.20;;;0.20;;
4186;SDS011;2107;52.306;10.484;2023-07-09T04:37:42;0.20;;;0.20;;
4186;SDS011;2107;52.306;10.484;2023-07-09T04:40:10;0.30;;;0.30;;
4186;SDS011;2107;52.306;10.484;2023-07-09T04:42:38;0.30;;;0.30;;
4186;SDS011;2107;52.306;10.484;2023-07-09T04:45:06;0.20;;;0.20;;
4186;SDS011;2107;52.306;10.484;2023-07-09T04:47:34;0.30;;;0.30;;
4186;SDS011;2107;52.306;10.484;2023-07-09T04:50:03;0.30;;;0.30;;
4186;SDS011;2107;52.306;10.484;2023-07-09T04:52:31;0.40;;;0.40;;
4186;SDS011;2107;52.306;10.484;2023-07-09T04:54:58;0.40;;;0.40;;
4186;SDS011;2107;52.306;10.484;2023-07-09T04:57:26;0.50;;;0.50;;
4186;SDS011;2107;52.306;10.484;2023-07-09T04:59:54;0.40;;;0.40;;
4186;SDS011;2107;52.306;10.484;2023-07-09T05:02:21;0.40;;;0.40;;
4186;SDS011;2107;52.306;10.484;2023-07-09T05:04:49;0.40;;;0.40;;
4186;SDS011;2107;52.306;10.484;2023-07-09T05:07:17;0.40;;;0.40;;
4186;SDS011;2107;52.306;10.484;2023-07-09T05:09:44;0.40;;;0.40;;
4186;SDS011;2107;52.306;10.484;2023-07-09T05:12:11;0.50;;;0.50;;
4186;SDS011;2107;52.306;10.484;2023-07-09T05:14:38;0.40;;;0.40;;
4186;SDS011;2107;52.306;10.484;2023-07-09T05:17:05;0.40;;;0.40;;
4186;SDS011;2107;52.306;10.484;2023-07-09T05:19:33;0.40;;;0.40;;
4186;SDS011;2107;52.306;10.484;2023-07-09T05:22:00;0.40;;;0.40;;
4186;SDS011;2107;52.306;10.484;2023-07-09T05:24:28;0.40;;;0.40;;
4186;SDS011;2107;52.306;10.484;2023-07-09T05:26:55;0.30;;;0.30;;
4186;SDS011;2107;52.306;10.484;2023-07-09T05:29:22;0.30;;;0.30;;
4186;SDS011;2107;52.306;10.484;2023-07-09T05:31:49;0.40;;;0.40;;
4186;SDS011;2107;52.306;10.484;2023-07-09T05:34:16;0.37;;;0.37;;
4186;SDS011;2107;52.306;10.484;2023-07-09T05:36:43;0.37;;;0.37;;
4186;SDS011;2107;52.306;10.484;2023-07-09T05:39:10;0.40;;;0.40;;
4186;SDS011;2107;52.306;10.484;2023-07-09T05:41:38;0.40;;;0.40;;
4186;SDS011;2107;52.306;10.484;2023-07-09T05:44:05;0.40;;;0.40;;
4186;SDS011;2107;52.306;10.484;2023-07-09T05:46:36;0.40;;;0.40;;
4186;SDS011;2107;52.306;10.484;2023-07-09T05:49:03;0.43;;;0.43;;
4186;SDS011;2107;52.306;10.484;2023-07-09T05:51:30;0.40;;;0.40;;
4186;SDS011;2107;52.306;10.484;2023-07-09T05:53:57;0.40;;;0.40;;
4186;SDS011;2107;52.306;10.484;2023-07-09T05:56:23;0.40;;;0.40;;
4186;SDS011;2107;52.306;10.484;2023-07-09T05:58:52;0.40;;;0.40;;
4186;SDS011;2107;52.306;10.484;2023-07-09T06:01:18;0.40;;;0.40;;
4186;SDS011;2107;52.306;10.484;2023-07-09T06:03:46;0.40;;;0.40;;
4186;SDS011;2107;52.306;10.484;2023-07-09T06:06:14;0.30;;;0.30;;
4186;SDS011;2107;52.306;10.484;2023-07-09T06:08:41;0.50;;;0.50;;
4186;SDS011;2107;52.306;10.484;2023-07-09T06:11:08;0.40;;;0.40;;
4186;SDS011;2107;52.306;10.484;2023-07-09T06:13:35;0.50;;;0.50;;
4186;SDS011;2107;52.306;10.484;2023-07-09T06:16:04;0.47;;;0.47;;
4186;SDS011;2107;52.306;10.484;2023-07-09T06:18:31;0.30;;;0.30;;
4186;SDS011;2107;52.306;10.484;2023-07-09T06:20:59;0.30;;;0.30;;
4186;SDS011;2107;52.306;10.484;2023-07-09T06:23:27;0.30;;;0.30;;
4186;SDS011;2107;52.306;10.484;2023-07-09T06:25:55;0.30;;;0.30;;
4186;SDS011;2107;52.306;10.484;2023-07-09T06:28:22;0.30;;;0.30;;
4186;SDS011;2107;52.306;10.484;2023-07-09T06:30:51;0.30;;;0.30;;
4186;SDS011;2107;52.306;10.484;2023-07-09T06:33:19;0.30;;;0.30;;
4186;SDS011;2107;52.306;10.484;2023-07-09T06:35:47;0.30;;;0.30;;
4186;SDS011;2107;52.306;10.484;2023-07-09T06:38:14;0.40;;;0.40;;
4186;SDS011;2107;52.306;10.484;2023-07-09T06:40:41;0.30;;;0.30;;
4186;SDS011;2107;52.306;10.484;2023-07-09T06:43:08;0.30;;;0.30;;
4186;SDS011;2107;52.306;10.484;2023-07-09T06:45:35;0.30;;;0.30;;
4186;SDS011;2107;52.306;10.484;2023-07-09T06:48:02;0.30;;;0.30;;
4186;SDS011;2107;52.306;10.484;2023-07-09T06:50:33;0.30;;;0.30;;
4186;SDS011;2107;52.306;10.484;2023-07-09T06:53:00;0.30;;;0.30;;
4186;SDS011;2107;52.306;10.484;2023-07-09T06:55:27;0.30;;;0.30;;
4186;SDS011;2107;52.306;10.484;2023-07-09T06:57:55;0.40;;;0.40;;
4186;SDS011;2107;52.306;10.484;2023-07-09T07:00:22;0.40;;;0.40;;
4186;SDS011;2107;52.306;10.484;2023-07-09T07:02:49;0.30;;;0.30;;
4186;SDS011;2107;52.306;10.484;2023-07-09T07:05:16;0.40;;;0.40;;
4186;SDS011;2107;52.306;10.484;2023-07-09T07:07:45;0.40;;;0.40;;
4186;SDS011;2107;52.306;10.484;2023-07-09T07:10:12;0.40;;;0.40;;
4186;SDS011;2107;52.306;10.484;2023-07-09T07:12:42;0.40;;;0.40;;
4186;SDS011;2107;52.306;10.484;2023-07-09T07:15:10;0.50;;;0.50;;
4186;SDS011;2107;52.306;10.484;2023-07-09T07:17:39;0.50;;;0.50;;
4186;SDS011;2107;52.306;10.484;2023-07-09T07:20:07;0.40;;;0.40;;
4186;SDS011;2107;52.306;10.484;2023-07-09T07:22:35;0.50;;;0.50;;
4186;SDS011;2107;52.306;10.484;2023-07-09T07:25:04;0.50;;;0.50;;
4186;SDS011;2107;52.306;10.484;2023-07-09T07:27:32;0.40;;;0.40;;
4186;SDS011;2107;52.306;10.484;2023-07-09T07:30:00;0.40;;;0.40;;
4186;SDS011;2107;52.306;10.484;2023-07-09T07:32:27;0.50;;;0.50;;
4186;SDS011;2107;52.306;10.484;2023-07-09T07:34:54;0.43;;;0.43;;
4186;SDS011;2107;52.306;10.484;2023-07-09T07:37:21;0.40;;;0.40;;
4186;SDS011;2107;52.306;10.484;2023-07-09T07:39:48;0.30;;;0.30;;
4186;SDS011;2107;52.306;10.484;2023-07-09T07:42:16;0.50;;;0.50;;
4186;SDS011;2107;52.306;10.484;2023-07-09T07:44:43;0.50;;;0.50;;
4186;SDS011;2107;52.306;10.484;2023-07-09T07:47:10;0.50;;;0.50;;
4186;SDS011;2107;52.306;10.484;2023-07-09T07:49:38;0.40;;;0.40;;
4186;SDS011;2107;52.306;10.484;2023-07-09T07:52:06;0.40;;;0.40;;
4186;SDS011;2107;52.306;10.484;2023-07-09T07:54:33;0.40;;;0.40;;
4186;SDS011;2107;52.306;10.484;2023-07-09T07:57:00;0.50;;;0.50;;
4186;SDS011;2107;52.306;10.484;2023-07-09T07:59:28;0.40;;;0.40;;
4186;SDS011;2107;52.306;10.484;2023-07-09T08:01:57;0.40;;;0.40;;
4186;SDS011;2107;52.306;10.484;2023-07-09T08:04:24;0.40;;;0.40;;
4186;SDS011;2107;52.306;10.484;2023-07-09T08:06:51;0.40;;;0.40;;
4186;SDS011;2107;52.306;10.484;2023-07-09T08:09:18;0.40;;;0.40;;
4186;SDS011;2107;52.306;10.484;2023-07-09T08:11:45;0.40;;;0.40;;
4186;SDS011;2107;52.306;10.484;2023-07-09T08:14:12;0.40;;;0.40;;
4186;SDS011;2107;52.306;10.484;2023-07-09T08:16:40;0.40;;;0.40;;
4186;SDS011;2107;52.306;10.484;2023-07-09T08:19:07;0.40;;;0.40;;
4186;SDS011;2107;52.306;10.484;2023-07-09T08:21:34;0.30;;;0.30;;
4186;SDS011;2107;52.306;10.484;2023-07-09T08:24:01;0.30;;;0.30;;
4186;SDS011;2107;52.306;10.484;2023-07-09T08:26:28;0.37;;;0.37;;
4186;SDS011;2107;52.306;10.484;2023-07-09T08:28:56;0.30;;;0.30;;
4186;SDS011;2107;52.306;10.484;2023-07-09T08:31:23;0.30;;;0.30;;
4186;SDS011;2107;52.306;10.484;2023-07-09T08:33:52;0.30;;;0.30;;
4186;SDS011;2107;52.306;10.484;2023-07-09T08:36:19;0.40;;;0.40;;
4186;SDS011;2107;52.306;10.484;2023-07-09T08:38:45;0.30;;;0.30;;
4186;SDS011;2107;52.306;10.484;2023-07-09T08:41:18;0.37;;;0.37;;
4186;SDS011;2107;52.306;10.484;2023-07-09T08:43:55;0.30;;;0.30;;
4186;SDS011;2107;52.306;10.484;2023-07-09T08:46:29;0.30;;;0.30;;
4186;SDS011;2107;52.306;10.484;2023-07-09T08:49:12;0.30;;;0.30;;
4186;SDS011;2107;52.306;10.484;2023-07-09T08:51:42;0.30;;;0.30;;
4186;SDS011;2107;52.306;10.484;2023-07-09T08:54:12;0.30;;;0.30;;
4186;SDS011;2107;52.306;10.484;2023-07-09T08:56:41;0.30;;;0.30;;
4186;SDS011;2107;52.306;10.484;2023-07-09T08:59:10;0.40;;;0.40;;
4186;SDS011;2107;52.306;10.484;2023-07-09T09:01:44;0.30;;;0.30;;
4186;SDS011;2107;52.306;10.484;2023-07-09T09:04:19;0.40;;;0.40;;
4186;SDS011;2107;52.306;10.484;2023-07-09T09:06:51;0.30;;;0.30;;
4186;SDS011;2107;52.306;10.484;2023-07-09T09:09:26;0.40;;;0.40;;
4186;SDS011;2107;52.306;10.484;2023-07-09T09:12:00;0.37;;;0.37;;
4186;SDS011;2107;52.306;10.484;2023-07-09T09:14:35;0.40;;;0.40;;
4186;SDS011;2107;52.306;10.484;2023-07-09T09:17:09;0.27;;;0.27;;
4186;SDS011;2107;52.306;10.484;2023-07-09T09:19:45;0.43;;;0.43;;
4186;SDS011;2107;52.306;10.484;2023-07-09T09:22:17;0.47;;;0.47;;
4186;SDS011;2107;52.306;10.484;2023-07-09T09:24:52;0.40;;;0.40;;
4186;SDS011;2107;52.306;10.484;2023-07-09T09:27:23;0.30;;;0.30;;
4186;SDS011;2107;52.306;10.484;2023-07-09T09:29:50;0.33;;;0.33;;
4186;SDS011;2107;52.306;10.484;2023-07-09T09:32:19;0.30;;;0.30;;
4186;SDS011;2107;52.306;10.484;2023-07-09T09:34:51;0.40;;;0.40;;
4186;SDS011;2107;52.306;10.484;2023-07-09T09:37:23;0.40;;;0.40;;
4186;SDS011;2107;52.306;10.484;2023-07-09T09:39:52;0.40;;;0.40;;
4186;SDS011;2107;52.306;10.484;2023-07-09T09:42:20;0.50;;;0.50;;
4186;SDS011;2107;52.306;10.484;2023-07-09T09:44:49;0.50;;;0.50;;
4186;SDS011;2107;52.306;10.484;2023-07-09T09:47:16;0.60;;;0.60;;
4186;SDS011;2107;52.306;10.484;2023-07-09T09:49:43;0.50;;;0.50;;
4186;SDS011;2107;52.306;10.484;2023-07-09T09:52:14;0.40;;;0.40;;
4186;SDS011;2107;52.306;10.484;2023-07-09T09:54:45;0.37;;;0.37;;
4186;SDS011;2107;52.306;10.484;2023-07-09T09:57:16;0.40;;;0.40;;
4186;SDS011;2107;52.306;10.484;2023-07-09T09:59:45;0.40;;;0.40;;
4186;SDS011;2107;52.306;10.484;2023-07-09T10:02:16;0.40;;;0.40;;
4186;SDS011;2107;52.306;10.484;2023-07-09T10:04:45;0.30;;;0.30;;
4186;SDS011;2107;52.306;10.484;2023-07-09T10:07:16;0.40;;;0.40;;
4186;SDS011;2107;52.306;10.484;2023-07-09T10:09:49;0.30;;;0.30;;
4186;SDS011;2107;52.306;10.484;2023-07-09T10:12:23;0.40;;;0.40;;
4186;SDS011;2107;52.306;10.484;2023-07-09T10:15:03;0.40;;;0.40;;
4186;SDS011;2107;52.306;10.484;2023-07-09T10:17:42;0.40;;;0.40;;
4186;SDS011;2107;52.306;10.484;2023-07-09T10:20:18;0.30;;;0.30;;
4186;SDS011;2107;52.306;10.484;2023-07-09T10:22:52;0.30;;;0.30;;
4186;SDS011;2107;52.306;10.484;2023-07-09T10:25:28;0.40;;;0.40;;
4186;SDS011;2107;52.306;10.484;2023-07-09T10:31:29;0.40;;;0.40;;
4186;SDS011;2107;52.306;10.484;2023-07-09T10:34:04;0.30;;;0.30;;
4186;SDS011;2107;52.306;10.484;2023-07-09T10:36:38;0.30;;;0.30;;
4186;SDS011;2107;52.306;10.484;2023-07-09T10:39:16;0.20;;;0.20;;
4186;SDS011;2107;52.306;10.484;2023-07-09T10:41:45;0.20;;;0.20;;
4186;SDS011;2107;52.306;10.484;2023-07-09T10:44:15;0.20;;;0.20;;
4186;SDS011;2107;52.306;10.484;2023-07-09T10:46:47;0.30;;;0.30;;
4186;SDS011;2107;52.306;10.484;2023-07-09T10:49:18;0.40;;;0.40;;
4186;SDS011;2107;52.306;10.484;2023-07-09T10:51:48;0.30;;;0.30;;
4186;SDS011;2107;52.306;10.484;2023-07-09T10:54:21;0.30;;;0.30;;
4186;SDS011;2107;52.306;10.484;2023-07-09T10:56:55;0.30;;;0.30;;
4186;SDS011;2107;52.306;10.484;2023-07-09T10:59:27;0.40;;;0.40;;
4186;SDS011;2107;52.306;10.484;2023-07-09T11:01:57;0.40;;;0.40;;
4186;SDS011;2107;52.306;10.484;2023-07-09T11:04:39;0.40;;;0.40;;
4186;SDS011;2107;52.306;10.484;2023-07-09T11:07:12;0.40;;;0.40;;
4186;SDS011;2107;52.306;10.484;2023-07-09T11:09:45;0.30;;;0.30;;
4186;SDS011;2107;52.306;10.484;2023-07-09T11:12:15;0.40;;;0.40;;
4186;SDS011;2107;52.306;10.484;2023-07-09T11:14:47;0.50;;;0.50;;
4186;SDS011;2107;52.306;10.484;2023-07-09T11:17:18;0.60;;;0.60;;
4186;SDS011;2107;52.306;10.484;2023-07-09T11:19:47;0.40;;;0.40;;
4186;SDS011;2107;52.306;10.484;2023-07-09T11:22:20;0.40;;;0.40;;
4186;SDS011;2107;52.306;10.484;2023-07-09T11:24:50;0.40;;;0.40;;
4186;SDS011;2107;52.306;10.484;2023-07-09T11:27:22;0.40;;;0.40;;
4186;SDS011;2107;52.306;10.484;2023-07-09T11:29:56;0.30;;;0.30;;
4186;SDS011;2107;52.306;10.484;2023-07-09T11:32:24;0.30;;;0.30;;
4186;SDS011;2107;52.306;10.484;2023-07-09T11:34:52;0.30;;;0.30;;
4186;SDS011;2107;52.306;10.484;2023-07-09T11:37:20;0.40;;;0.40;;
4186;SDS011;2107;52.306;10.484;2023-07-09T11:39:52;0.30;;;0.30;;
4186;SDS011;2107;52.306;10.484;2023-07-09T11:42:26;0.25;;;0.25;;
4186;SDS011;2107;52.306;10.484;2023-07-09T11:44:57;0.30;;;0.30;;
4186;SDS011;2107;52.306;10.484;2023-07-09T11:47:30;0.40;;;0.40;;
4186;SDS011;2107;52.306;10.484;2023-07-09T11:50:02;0.38;;;0.38;;
4186;SDS011;2107;52.306;10.484;2023-07-09T11:52:32;0.40;;;0.40;;
4186;SDS011;2107;52.306;10.484;2023-07-09T11:55:04;0.30;;;0.30;;
4186;SDS011;2107;52.306;10.484;2023-07-09T11:57:47;0.40;;;0.40;;
4186;SDS011;2107;52.306;10.484;2023-07-09T12:00:18;0.40;;;0.40;;
4186;SDS011;2107;52.306;10.484;2023-07-09T12:02:45;0.40;;;0.40;;
4186;SDS011;2107;52.306;10.484;2023-07-09T12:05:12;0.40;;;0.40;;
4186;SDS011;2107;52.306;10.484;2023-07-09T12:07:44;0.40;;;0.40;;
4186;SDS011;2107;52.306;10.484;2023-07-09T12:10:16;0.40;;;0.40;;
4186;SDS011;2107;52.306;10.484;2023-07-09T12:12:46;0.50;;;0.50;;
4186;SDS011;2107;52.306;10.484;2023-07-09T12:15:15;0.40;;;0.40;;
4186;SDS011;2107;52.306;10.484;2023-07-09T12:17:52;0.40;;;0.40;;
4186;SDS011;2107;52.306;10.484;2023-07-09T12:20:20;0.40;;;0.40;;
4186;SDS011;2107;52.306;10.484;2023-07-09T12:22:47;0.40;;;0.40;;
4186;SDS011;2107;52.306;10.484;2023-07-09T12:25:20;0.50;;;0.50;;
4186;SDS011;2107;52.306;10.484;2023-07-09T12:27:50;0.40;;;0.40;;
4186;SDS011;2107;52.306;10.484;2023-07-09T12:30:18;0.50;;;0.50;;
4186;SDS011;2107;52.306;10.484;2023-07-09T12:32:46;0.40;;;0.40;;
4186;SDS011;2107;52.306;10.484;2023-07-09T12:35:16;0.40;;;0.40;;
4186;SDS011;2107;52.306;10.484;2023-07-09T12:37:44;0.47;;;0.47;;
4186;SDS011;2107;52.306;10.484;2023-07-09T12:40:13;0.32;;;0.32;;
4186;SDS011;2107;52.306;10.484;2023-07-09T12:42:44;0.40;;;0.40;;
4186;SDS011;2107;52.306;10.484;2023-07-09T12:45:14;0.43;;;0.43;;
4186;SDS011;2107;52.306;10.484;2023-07-09T12:47:44;0.50;;;0.50;;
4186;SDS011;2107;52.306;10.484;2023-07-09T12:50:19;0.50;;;0.50;;
4186;SDS011;2107;52.306;10.484;2023-07-09T12:52:52;0.50;;;0.50;;
4186;SDS011;2107;52.306;10.484;2023-07-09T12:55:22;0.50;;;0.50;;
4186;SDS011;2107;52.306;10.484;2023-07-09T12:57:53;0.50;;;0.50;;
4186;SDS011;2107;52.306;10.484;2023-07-09T13:00:21;0.50;;;0.50;;
4186;SDS011;2107;52.306;10.484;2023-07-09T13:02:52;0.50;;;0.50;;
4186;SDS011;2107;52.306;10.484;2023-07-09T13:05:21;0.60;;;0.60;;
4186;SDS011;2107;52.306;10.484;2023-07-09T13:07:50;0.60;;;0.60;;
4186;SDS011;2107;52.306;10.484;2023-07-09T13:10:19;0.40;;;0.40;;
4186;SDS011;2107;52.306;10.484;2023-07-09T13:12:51;0.40;;;0.40;;
4186;SDS011;2107;52.306;10.484;2023-07-09T13:15:27;0.50;;;0.50;;
4186;SDS011;2107;52.306;10.484;2023-07-09T13:17:59;0.50;;;0.50;;
4186;SDS011;2107;52.306;10.484;2023-07-09T13:20:27;0.60;;;0.60;;
4186;SDS011;2107;52.306;10.484;2023-07-09T13:22:55;0.68;;;0.68;;
4186;SDS011;2107;52.306;10.484;2023-07-09T13:25:22;0.43;;;0.43;;
4186;SDS011;2107;52.306;10.484;2023-07-09T13:27:49;0.50;;;0.50;;
4186;SDS011;2107;52.306;10.484;2023-07-09T13:30:18;0.60;;;0.60;;
4186;SDS011;2107;52.306;10.484;2023-07-09T13:32:45;0.50;;;0.50;;
4186;SDS011;2107;52.306;10.484;2023-07-09T13:35:14;0.50;;;0.50;;
4186;SDS011;2107;52.306;10.484;2023-07-09T13:37:42;0.50;;;0.50;;
4186;SDS011;2107;52.306;10.484;2023-07-09T13:40:10;0.60;;;0.60;;
4186;SDS011;2107;52.306;10.484;2023-07-09T13:42:38;0.55;;;0.55;;
4186;SDS011;2107;52.306;10.484;2023-07-09T13:45:09;0.80;;;0.80;;
4186;SDS011;2107;52.306;10.484;2023-07-09T13:47:45;0.50;;;0.50;;
4186;SDS011;2107;52.306;10.484;2023-07-09T13:50:13;0.50;;;0.50;;
4186;SDS011;2107;52.306;10.484;2023-07-09T13:52:41;0.70;;;0.70;;
4186;SDS011;2107;52.306;10.484;2023-07-09T13:55:11;0.60;;;0.60;;
4186;SDS011;2107;52.306;10.484;2023-07-09T13:57:45;0.70;;;0.70;;
4186;SDS011;2107;52.306;10.484;2023-07-09T14:00:13;0.50;;;0.50;;
4186;SDS011;2107;52.306;10.484;2023-07-09T14:02:41;0.40;;;0.40;;
4186;SDS011;2107;52.306;10.484;2023-07-09T14:05:10;0.50;;;0.50;;
4186;SDS011;2107;52.306;10.484;2023-07-09T14:07:39;0.40;;;0.40;;
4186;SDS011;2107;52.306;10.484;2023-07-09T14:10:11;0.40;;;0.40;;
4186;SDS011;2107;52.306;10.484;2023-07-09T14:12:41;0.50;;;0.50;;
4186;SDS011;2107;52.306;10.484;2023-07-09T14:15:12;0.60;;;0.60;;
4186;SDS011;2107;52.306;10.484;2023-07-09T14:17:43;0.50;;;0.50;;
4186;SDS011;2107;52.306;10.484;2023-07-09T14:20:12;0.50;;;0.50;;
4186;SDS011;2107;52.306;10.484;2023-07-09T14:22:41;0.55;;;0.55;;
4186;SDS011;2107;52.306;10.484;2023-07-09T14:25:14;0.60;;;0.60;;
4186;SDS011;2107;52.306;10.484;2023-07-09T14:27:43;0.60;;;0.60;;
4186;SDS011;2107;52.306;10.484;2023-07-09T14:30:13;0.60;;;0.60;;
4186;SDS011;2107;52.306;10.484;2023-07-09T14:32:42;0.50;;;0.50;;
4186;SDS011;2107;52.306;10.484;2023-07-09T14:35:12;0.60;;;0.60;;
4186;SDS011;2107;52.306;10.484;2023-07-09T14:37:41;0.60;;;0.60;;
4186;SDS011;2107;52.306;10.484;2023-07-09T14:40:08;0.50;;;0.50;;
4186;SDS011;2107;52.306;10.484;2023-07-09T14:42:36;0.40;;;0.40;;
4186;SDS011;2107;52.306;10.484;2023-07-09T14:45:04;0.40;;;0.40;;
4186;SDS011;2107;52.306;10.484;2023-07-09T14:47:32;0.40;;;0.40;;
4186;SDS011;2107;52.306;10.484;2023-07-09T14:50:01;0.40;;;0.40;;
4186;SDS011;2107;52.306;10.484;2023-07-09T14:52:28;0.50;;;0.50;;
4186;SDS011;2107;52.306;10.484;2023-07-09T14:54:56;0.60;;;0.60;;
4186;SDS011;2107;52.306;10.484;2023-07-09T14:57:24;0.70;;;0.70;;
4186;SDS011;2107;52.306;10.484;2023-07-09T14:59:55;0.70;;;0.70;;
4186;SDS011;2107;52.306;10.484;2023-07-09T15:02:26;0.60;;;0.60;;
4186;SDS011;2107;52.306;10.484;2023-07-09T15:05:00;0.60;;;0.60;;
4186;SDS011;2107;52.306;10.484;2023-07-09T15:07:29;0.65;;;0.65;;
4186;SDS011;2107;52.306;10.484;2023-07-09T15:09:56;0.60;;;0.60;;
4186;SDS011;2107;52.306;10.484;2023-07-09T15:12:25;0.60;;;0.60;;
4186;SDS011;2107;52.306;10.484;2023-07-09T15:14:55;0.60;;;0.60;;